Time,TemperatureF,DewpointF,PressureIn,WindDirection,WindDirectionDegrees,WindSpeedMPH,WindSpeedGustMPH,Humidity,HourlyPrecipIn,Conditions,Clouds,dailyrainin,SoftwareType,DateUTC
2013-07-19 01:33:00,79.0,64.0,-100.00,SW,220,6.0,16.0,60,0.00,,,-99.99,,2013-07-19 06:33:00,
2013-07-19 01:43:00,79.0,64.0,-100.00,SW,220,6.0,16.0,60,0.00,,,-99.99,,2013-07-19 06:43:00,
2013-07-19 01:53:00,79.0,64.0,-100.00,SW,220,6.0,16.0,60,0.00,,,-99.99,,2013-07-19 06:53:00,
2013-07-19 02:01:00,79.0,64.0,-100.00,SW,220,6.0,16.0,60,0.00,,,-99.99,,2013-07-19 07:01:00,
2013-07-19 02:12:00,79.0,64.0,-100.00,SW,220,6.0,16.0,60,0.00,,,-99.99,,2013-07-19 07:12:00,
2013-07-19 02:33:00,70.0,65.0,-100.00,SW,215,3.0,5.0,85,0.14,,,-99.99,,2013-07-19 07:33:00,
2013-07-19 02:43:00,70.0,65.0,-100.00,SW,215,3.0,5.0,85,0.14,,,-99.99,,2013-07-19 07:43:00,
2013-07-19 02:53:00,70.0,65.0,-100.00,SW,215,3.0,5.0,85,0.14,,,-99.99,,2013-07-19 07:53:00,
2013-07-19 03:01:00,70.0,65.0,-100.00,SW,215,3.0,5.0,85,0.14,,,-99.99,,2013-07-19 08:01:00,
2013-07-19 03:11:00,70.0,65.0,-100.00,SW,215,3.0,5.0,85,0.14,,,-99.99,,2013-07-19 08:11:00,
2013-07-19 03:33:00,69.0,65.0,-100.00,West,265,2.0,5.0,86,0.00,,,-99.99,,2013-07-19 08:33:00,
2013-07-19 03:43:00,69.0,65.0,-100.00,West,265,2.0,5.0,86,0.00,,,-99.99,,2013-07-19 08:43:00,
2013-07-19 03:52:00,69.0,65.0,-100.00,West,265,2.0,5.0,86,0.00,,,-99.99,,2013-07-19 08:52:00,
2013-07-19 04:02:00,69.0,65.0,-100.00,West,265,2.0,5.0,86,0.00,,,-99.99,,2013-07-19 09:02:00,
2013-07-19 04:11:00,69.0,65.0,-100.00,West,265,2.0,5.0,86,0.00,,,-99.99,,2013-07-19 09:11:00,
2013-07-19 04:32:00,69.0,65.0,-100.00,WNW,290,1.0,6.0,86,0.00,,,-99.99,,2013-07-19 09:32:00,
2013-07-19 04:43:00,69.0,65.0,-100.00,WNW,290,1.0,6.0,86,0.00,,,-99.99,,2013-07-19 09:43:00,
2013-07-19 04:52:00,69.0,65.0,-100.00,WNW,290,1.0,6.0,86,0.00,,,-99.99,,2013-07-19 09:52:00,
2013-07-19 05:01:00,69.0,65.0,-100.00,WNW,290,1.0,6.0,86,0.00,,,-99.99,,2013-07-19 10:01:00,
2013-07-19 05:11:00,69.0,65.0,-100.00,WNW,290,1.0,6.0,86,0.00,,,-99.99,,2013-07-19 10:11:00,
2013-07-19 05:33:00,68.0,63.0,-100.00,WNW,285,1.0,2.0,86,0.00,,,-99.99,,2013-07-19 10:33:00,
2013-07-19 05:43:00,68.0,63.0,-100.00,WNW,285,1.0,2.0,86,0.00,,,-99.99,,2013-07-19 10:43:00,
2013-07-19 05:52:00,68.0,63.0,-100.00,WNW,285,1.0,2.0,86,0.00,,,-99.99,,2013-07-19 10:52:00,
2013-07-19 06:02:00,68.0,63.0,-100.00,WNW,285,1.0,2.0,86,0.00,,,-99.99,,2013-07-19 11:02:00,
2013-07-19 06:12:00,68.0,63.0,-100.00,WNW,285,1.0,2.0,86,0.00,,,-99.99,,2013-07-19 11:12:00,
2013-07-19 06:33:00,67.0,63.0,-100.00,North,350,0.0,1.0,86,0.00,,,-99.99,,2013-07-19 11:33:00,
2013-07-19 06:43:00,67.0,63.0,-100.00,North,350,0.0,1.0,86,0.00,,,-99.99,,2013-07-19 11:43:00,
2013-07-19 06:52:00,67.0,63.0,-100.00,North,350,0.0,1.0,86,0.00,,,-99.99,,2013-07-19 11:52:00,
2013-07-19 07:01:00,67.0,63.0,-100.00,North,350,0.0,1.0,86,0.00,,,-99.99,,2013-07-19 12:01:00,
2013-07-19 07:12:00,67.0,63.0,-100.00,North,350,0.0,1.0,86,0.00,,,-99.99,,2013-07-19 12:12:00,
2013-07-19 07:44:00,73.0,68.0,-100.00,WNW,285,4.0,7.0,86,0.00,,,-99.99,,2013-07-19 12:44:00,
2013-07-19 07:52:00,73.0,68.0,-100.00,WNW,285,4.0,7.0,86,0.00,,,-99.99,,2013-07-19 12:52:00,
2013-07-19 08:02:00,73.0,68.0,-100.00,WNW,285,4.0,7.0,86,0.00,,,-99.99,,2013-07-19 13:02:00,
2013-07-19 08:12:00,73.0,68.0,-100.00,WNW,285,4.0,7.0,86,0.00,,,-99.99,,2013-07-19 13:12:00,
2013-07-19 08:32:00,73.0,66.0,-100.00,West,275,4.0,16.0,78,0.00,,,-99.99,,2013-07-19 13:32:00,
2013-07-19 08:43:00,73.0,66.0,-100.00,West,275,4.0,16.0,78,0.00,,,-99.99,,2013-07-19 13:43:00,
2013-07-19 08:53:00,73.0,66.0,-100.00,West,275,4.0,16.0,78,0.00,,,-99.99,,2013-07-19 13:53:00,
2013-07-19 09:02:00,73.0,66.0,-100.00,West,275,4.0,16.0,78,0.00,,,-99.99,,2013-07-19 14:02:00,
2013-07-19 09:11:00,73.0,66.0,-100.00,West,275,4.0,16.0,78,0.00,,,-99.99,,2013-07-19 14:11:00,
2013-07-19 09:43:00,74.0,61.0,-100.00,WNW,285,6.0,12.0,64,0.00,,,-99.99,,2013-07-19 14:43:00,
2013-07-19 09:53:00,74.0,61.0,-100.00,WNW,285,6.0,12.0,64,0.00,,,-99.99,,2013-07-19 14:53:00,
2013-07-19 10:02:00,74.0,61.0,-100.00,WNW,285,6.0,12.0,64,0.00,,,-99.99,,2013-07-19 15:02:00,
2013-07-19 10:11:00,74.0,61.0,-100.00,WNW,285,6.0,12.0,64,0.00,,,-99.99,,2013-07-19 15:11:00,
2013-07-19 20:52:00,69.0,51.0,-100.00,West,280,1.0,1.0,53,0.00,,,-99.99,,2013-07-20 01:52:00,
2013-07-19 21:02:00,69.0,51.0,-100.00,West,280,1.0,1.0,53,0.00,,,-99.99,,2013-07-20 02:02:00,
2013-07-19 21:11:00,69.0,51.0,-100.00,West,280,1.0,1.0,53,0.00,,,-99.99,,2013-07-20 02:11:00,
2013-07-19 22:02:00,64.0,54.0,-100.00,West,280,1.0,2.0,72,0.00,,,-99.99,,2013-07-20 03:02:00,
2013-07-19 22:11:00,64.0,54.0,-100.00,West,280,1.0,2.0,72,0.00,,,-99.99,,2013-07-20 03:11:00,
2013-07-19 22:32:00,64.0,58.0,-100.00,WNW,300,0.0,1.0,79,0.00,,,-99.99,,2013-07-20 03:32:00,
2013-07-19 22:44:00,64.0,58.0,-100.00,WNW,300,0.0,1.0,79,0.00,,,-99.99,,2013-07-20 03:44:00,
2013-07-19 22:53:00,64.0,58.0,-100.00,WNW,300,0.0,1.0,79,0.00,,,-99.99,,2013-07-20 03:53:00,
2013-07-19 23:02:00,64.0,58.0,-100.00,WNW,300,0.0,1.0,79,0.00,,,-99.99,,2013-07-20 04:02:00,
2013-07-19 23:12:00,64.0,58.0,-100.00,WNW,300,0.0,1.0,79,0.00,,,-99.99,,2013-07-20 04:12:00,
2013-07-19 23:33:00,65.0,54.0,-100.00,WNW,285,4.0,7.0,68,0.00,,,-99.99,,2013-07-20 04:33:00,
2013-07-19 23:44:00,65.0,54.0,-100.00,West,280,2.0,7.0,69,0.00,,,-99.99,,2013-07-20 04:44:00,
2013-07-19 23:52:00,65.0,54.0,-100.00,West,280,2.0,7.0,69,0.00,,,-99.99,,2013-07-20 04:52:00,